Latest Weather Observations for New May Downs

IDQ60801

Issued at 10:32 pm EST Monday 27 March 2017 (issued every 30 minutes, with the page automatically refreshed every 10 minutes)

About weather observations | Map of weather stations | Latest weather observations for QLD | Other Formats
Station Details ID: 037059 Name: NEW MAY DOWNS Lat: -20.59 Lon: 139.34 Height: 392.0 m
Data from the previous 72 hours. | See also: Recent months at New May Downs
Date/Time
EST
Temp
°C
App
Temp
°C
Dew
Point
°C
Rel
Hum
%
Delta-T
°C
Wind Press
QNH
hPa
Press
MSL
hPa
Rain since
9am
mm
Dir  Spd
km/h
Gust
km/h
Spd
kts
Gust
kts
27/10:30pm 30.4 29.9 11.9 32 11.0 ESE 6 9 3 5 - - 0.0
27/10:00pm 30.7 30.2 12.1 32 11.1 SSE 6 7 3 4 - - 0.0
27/09:30pm 30.9 30.3 11.8 31 11.3 ESE 6 6 3 3 - - 0.0
27/09:00pm 31.8 31.2 11.6 29 12.0 E 6 7 3 4 - - 0.0
27/08:30pm 32.6 31.7 11.2 27 12.7 ENE 7 11 4 6 - - 0.0
27/08:00pm 32.8 31.7 10.8 26 13.0 ENE 7 9 4 5 - - 0.0
27/07:30pm 33.6 32.2 10.9 25 13.4 ENE 9 11 5 6 - - 0.0
27/07:00pm 35.2 33.2 10.3 22 14.7 E 11 15 6 8 - - 0.0
27/06:30pm 36.5 33.9 9.2 19 16.0 E 13 20 7 11 - - 0.0
27/06:00pm 37.4 34.1 8.2 17 16.9 E 15 24 8 13 - - 0.0
27/05:30pm 38.1 35.7 8.8 17 17.1 ESE 11 20 6 11 - - 0.0
27/05:00pm 38.7 35.6 7.4 15 18.0 SSE 13 20 7 11 - - 0.0
27/04:30pm 38.9 35.7 3.1 11 19.3 SE 9 19 5 10 - - 0.0
27/04:00pm 38.7 35.2 5.4 13 18.6 ESE 13 26 7 14 - - 0.0
27/03:30pm 38.8 35.5 4.3 12 18.9 ESE 11 24 6 13 - - 0.0
27/03:00pm 38.5 35.1 4.1 12 18.8 E 11 26 6 14 - - 0.0
27/02:30pm 38.0 34.4 6.9 15 17.7 SE 15 24 8 13 - - 0.0
27/02:00pm 38.1 34.8 7.9 16 17.4 E 15 26 8 14 - - 0.0
27/01:30pm 38.6 35.9 7.4 15 17.9 ESE 11 19 6 10 - - 0.0
27/01:00pm 37.6 33.8 7.5 16 17.2 SE 17 24 9 13 - - 0.0
27/12:30pm 36.7 33.3 9.3 19 16.0 E 17 33 9 18 - - 0.0
27/12:00pm 37.3 35.6 11.3 21 15.7 ESE 11 20 6 11 - - 0.0
27/11:30am 36.7 34.3 10.1 20 15.8 E 13 28 7 15 - - 0.0
27/11:00am 36.0 33.3 10.2 21 15.3 ENE 15 24 8 13 - - 0.0
27/10:30am 36.1 34.7 11.0 22 15.0 ENE 9 17 5 9 - - 0.0
27/10:00am 34.0 34.2 12.9 28 12.9 NE 4 7 2 4 - - 0.0
27/09:30am 32.8 33.3 12.9 29 12.1 ENE 2 6 1 3 - - 0.0
27/09:00am 31.7 32.6 13.0 32 11.3 CALM 0 0 0 0 - - 0.0
27/08:30am 29.7 31.3 15.0 40 9.1 CALM 0 0 0 0 - - 0.0
27/08:00am 26.3 28.2 15.7 52 6.6 CALM 0 2 0 1 - - 0.0
27/07:30am 24.2 25.9 15.1 56 5.5 CALM 0 0 0 0 - - 0.0
27/07:00am 22.7 24.7 16.0 66 4.1 CALM 0 0 0 0 - - 0.0
27/06:30am 26.0 26.4 13.8 47 7.3 N 4 6 2 3 - - 0.0
27/06:00am 25.4 26.0 14.2 50 6.8 N 4 6 2 3 - - 0.0
27/05:30am 25.3 26.0 14.4 50 6.6 NE 4 4 2 2 - - 0.0
27/05:00am 25.8 26.7 14.0 48 7.1 ENE 2 4 1 2 - - 0.0
27/04:30am 24.8 26.5 15.1 54 5.9 CALM 0 0 0 0 - - 0.0
27/04:00am 27.3 27.7 13.6 43 8.2 NNE 4 6 2 3 - - 0.0
27/03:30am 26.1 27.6 14.6 49 7.0 CALM 0 2 0 1 - - 0.0
27/03:00am 28.1 28.9 13.6 41 8.8 NE 2 6 1 3 - - 0.0
27/02:30am 27.0 28.4 14.4 46 7.7 CALM 0 0 0 0 - - 0.0
27/02:00am 27.3 28.1 14.7 46 7.7 E 4 6 2 3 - - 0.0
27/01:30am 28.0 28.0 14.3 43 8.4 NE 7 9 4 5 - - 0.0
27/01:00am 28.7 28.3 14.1 40 8.9 ENE 9 11 5 6 - - 0.0
27/12:30am 28.4 27.6 15.0 44 8.3 ENE 13 15 7 8 - - 0.0
27/12:00am 28.7 28.4 14.5 42 8.7 E 9 11 5 6 - - 0.0
 
Date/Time
EST
Temp
°C
App
Temp
°C
Dew
Point
°C
Rel
Hum
%
Delta-T
°C
Wind Press
QNH
hPa
Press
MSL
hPa
Rain since
9am
mm
Dir  Spd
km/h
Gust
km/h
Spd
kts
Gust
kts
26/11:30pm 29.1 29.3 14.1 40 9.2 ESE 6 7 3 4 - - 0.0
26/11:00pm 30.1 30.5 13.8 37 9.9 E 4 4 2 2 - - 0.0
26/10:30pm 29.6 30.6 14.2 39 9.4 ESE 2 4 1 2 - - 0.0
26/10:00pm 30.3 30.4 14.0 37 10.0 E 6 6 3 3 - - 0.0
26/09:30pm 30.9 30.9 13.7 35 10.5 ENE 6 7 3 4 - - 0.0
26/09:00pm 31.5 31.3 13.7 33 10.9 ENE 7 9 4 5 - - 0.0
26/08:30pm 31.8 31.6 13.5 32 11.2 ENE 7 9 4 5 - - 0.0
26/08:00pm 32.5 32.3 13.7 32 11.6 ENE 7 9 4 5 - - 0.0
26/07:30pm 33.2 32.9 13.3 30 12.2 NE 7 7 4 4 - - 0.0
26/07:00pm 33.7 33.4 13.2 29 12.6 ENE 7 9 4 5 - - 0.0
26/06:30pm 35.3 33.4 12.9 26 13.8 E 15 22 8 12 - - 0.0
26/06:00pm 35.9 34.9 13.4 26 13.9 E 11 19 6 10 - - 0.0
26/05:30pm 36.5 34.9 12.7 24 14.6 E 13 20 7 11 - - 0.0
26/05:00pm 37.4 35.8 12.8 23 15.2 E 13 20 7 11 - - 0.0
26/04:30pm 37.0 34.9 12.4 23 15.1 ESE 15 24 8 13 - - 0.0
26/04:00pm 37.8 36.5 13.8 24 15.1 E 13 22 7 12 - - 0.0
26/03:30pm 37.2 35.2 13.9 25 14.6 E 17 28 9 15 - - 0.0
26/03:00pm 37.1 35.1 13.8 25 14.6 ESE 17 30 9 16 - - 0.0
26/02:30pm 37.3 36.7 14.6 26 14.4 E 11 20 6 11 - - 0.0
26/02:00pm 36.8 35.9 15.8 28 13.5 E 15 26 8 14 - - 0.0
26/01:30pm 35.7 36.5 16.4 31 12.5 SE 7 13 4 7 - - 0.0
26/01:00pm 35.0 36.2 16.8 34 11.8 E 6 11 3 6 - - 0.0
26/12:30pm 36.4 37.3 17.5 32 12.4 ESE 9 19 5 10 - - 0.0
26/12:00pm 34.6 34.3 16.4 33 11.7 ESE 13 20 7 11 - - 0.0
26/11:30am 34.1 36.8 18.6 40 10.3 NNW 2 6 1 3 - - 0.0
26/11:00am 33.5 35.5 19.2 43 9.5 NE 7 11 4 6 - - 0.0
26/10:30am 33.1 35.9 19.6 45 9.0 SE 4 7 2 4 - - 0.0
26/10:00am 32.5 36.3 21.0 50 7.8 SW 2 6 1 3 - - 0.0
26/09:30am 30.8 33.9 21.0 56 6.6 SW 6 9 3 5 - - 0.0
26/09:00am 30.0 33.1 21.1 59 6.0 WSW 6 9 3 5 - - 0.0
26/08:30am 29.0 32.4 21.0 62 5.4 W 4 7 2 4 - - 0.0
26/08:00am 28.3 32.4 20.8 63 5.0 CALM 0 0 0 0 - - 0.0
26/07:30am 26.1 30.4 21.1 74 3.4 CALM 0 0 0 0 - - 0.0
26/07:00am 25.1 29.2 20.8 77 2.9 CALM 0 0 0 0 - - 0.0
26/06:30am 25.6 28.9 20.8 75 3.2 SSW 4 6 2 3 - - 0.0
26/06:00am 25.9 29.2 20.7 73 3.5 WSW 4 6 2 3 - - 0.0
26/05:30am 26.3 29.5 20.6 71 3.8 NNW 4 7 2 4 - - 0.0
26/05:00am 26.6 29.8 20.4 69 4.1 NNW 4 7 2 4 - - 0.0
26/04:30am 27.0 29.6 20.1 66 4.6 NNW 6 7 3 4 - - 0.0
26/04:00am 27.2 29.8 20.0 64 4.8 NNW 6 7 3 4 - - 0.0
26/03:30am 27.6 30.1 19.9 63 5.1 N 6 6 3 3 - - 0.0
26/03:00am 27.7 30.6 19.8 62 5.2 NNW 4 6 2 3 - - 0.0
26/02:30am 27.8 31.0 20.4 64 4.9 N 4 4 2 2 - - 0.0
26/02:00am 28.4 30.9 19.9 60 5.6 N 6 6 3 3 - - 0.0
26/01:30am 28.5 31.5 20.0 60 5.6 N 4 6 2 3 - - 0.0
26/01:00am 28.3 31.2 19.8 60 5.6 N 4 6 2 3 - - 0.0
26/12:30am 29.3 31.9 19.3 55 6.6 N 4 6 2 3 - - 0.0
26/12:00am 29.3 31.5 19.3 55 6.6 NNE 6 7 3 4 - - 0.0
 
Date/Time
EST
Temp
°C
App
Temp
°C
Dew
Point
°C
Rel
Hum
%
Delta-T
°C
Wind Press
QNH
hPa
Press
MSL
hPa
Rain since
9am
mm
Dir  Spd
km/h
Gust
km/h
Spd
kts
Gust
kts
25/11:30pm 30.0 32.2 19.1 52 7.2 N 6 7 3 4 - - 0.0
25/11:00pm 30.3 32.5 19.3 51 7.3 NNE 6 7 3 4 - - 0.0
25/10:30pm 30.5 32.5 19.2 51 7.5 NNE 7 7 4 4 - - 0.0
25/10:00pm 30.8 32.8 19.2 50 7.7 NNE 7 9 4 5 - - 0.0
25/09:30pm 31.1 33.1 19.1 48 7.9 NNE 7 9 4 5 - - 0.0
25/09:00pm 31.8 33.4 19.1 47 8.4 NE 9 11 5 6 - - 0.0
25/08:30pm 32.0 33.5 18.9 45 8.7 NE 9 13 5 7 - - 0.0
25/08:00pm 32.5 34.0 19.0 44 8.9 NE 9 13 5 7 - - 0.0
25/07:30pm 33.0 33.9 18.4 42 9.6 NE 11 15 6 8 - - 0.0
25/07:00pm 33.4 34.3 18.3 40 9.9 NE 11 19 6 10 - - 0.0
25/06:30pm 34.0 34.4 18.1 39 10.5 NE 13 19 7 10 - - 0.0
25/06:00pm 34.9 35.2 18.0 36 11.1 NE 13 20 7 11 - - 0.0
25/05:30pm 35.1 35.4 17.8 36 11.4 NE 13 20 7 11 - - 0.0
25/05:00pm 35.5 35.3 17.7 35 11.7 NE 15 26 8 14 - - 0.0
25/04:30pm 35.9 35.9 17.1 32 12.3 ENE 13 20 7 11 - - 0.0
25/04:00pm 36.7 36.2 16.8 30 13.0 ENE 15 22 8 12 - - 0.0
25/03:30pm 36.4 35.6 18.0 33 12.2 NE 19 32 10 17 - - 0.0
25/03:00pm 37.2 37.0 17.7 31 12.9 NE 15 28 8 15 - - 0.0
25/02:30pm 36.7 36.4 18.3 34 12.2 E 17 28 9 15 - - 0.0
25/02:00pm 36.2 36.5 18.7 35 11.7 ESE 15 30 8 16 - - 0.0
25/01:30pm 36.0 37.2 19.0 36 11.4 E 11 22 6 12 - - 0.0
25/01:00pm 35.1 35.5 19.1 39 10.7 ENE 15 24 8 13 - - 0.0
25/12:30pm 35.0 37.1 20.2 42 10.0 NE 9 20 5 11 - - 0.0
25/12:00pm 35.5 38.4 21.0 42 9.9 NE 7 19 4 10 - - 0.0
25/11:30am 33.8 35.3 20.6 46 9.0 ENE 13 19 7 10 - - 0.0
25/11:00am 34.5 37.5 21.2 46 9.1 NNE 7 13 4 7 - - 0.0
25/10:30am 33.0 34.7 20.9 49 8.2 NNE 13 20 7 11 - - 0.0
25/10:00am 32.5 34.8 20.7 49 8.0 NNE 9 15 5 8 - - 0.0
25/09:30am 31.5 33.9 20.8 53 7.2 NNE 9 19 5 10 - - 0.0
25/09:00am 31.1 33.7 20.4 53 7.2 NE 7 13 4 7 - - 0.0
25/08:30am 30.1 32.7 20.4 56 6.5 NE 7 9 4 5 - - 0.0
25/08:00am 29.2 32.2 20.1 58 6.1 NE 4 7 2 4 - - 0.0
25/07:30am 27.5 30.2 20.6 66 4.6 ENE 7 9 4 5 - - 0.0
25/07:00am 25.9 28.4 19.8 69 4.0 ENE 6 7 3 4 - - 0.0
25/06:30am 26.8 30.2 19.4 64 4.9 CALM 0 0 0 0 - - 0.0
25/06:00am 27.1 30.4 19.2 62 5.2 CALM 0 0 0 0 - - 0.0
25/05:30am 27.6 30.9 19.1 59 5.6 CALM 0 0 0 0 - - 0.0
25/05:00am 28.0 30.5 19.0 58 5.9 NNE 4 6 2 3 - - 0.0
25/04:30am 27.6 29.5 18.9 59 5.7 NE 7 9 4 5 - - 0.0
25/04:00am 27.5 29.3 18.8 59 5.7 ENE 7 9 4 5 - - 0.0
25/03:30am 27.9 29.4 18.9 58 5.9 NE 9 11 5 6 - - 0.0
25/03:00am 28.5 30.0 18.9 56 6.3 NE 9 13 5 7 - - 0.0
25/02:30am 29.3 30.8 19.0 53 6.8 NE 9 15 5 8 - - 0.0
25/02:00am 28.4 29.5 16.7 49 7.4 NE 6 9 3 5 - - 0.0
25/01:30am 28.8 29.4 15.7 45 8.2 NE 7 9 4 5 - - 0.0
25/01:00am 29.3 29.5 14.7 41 9.0 NE 7 9 4 5 - - 0.0
25/12:30am 28.4 29.0 15.7 46 7.9 E 7 9 4 5 - - 0.0
25/12:00am 28.3 29.2 16.2 47 7.6 NE 6 9 3 5 - - 0.0
 
Date/Time
EST
Temp
°C
App
Temp
°C
Dew
Point
°C
Rel
Hum
%
Delta-T
°C
Wind Press
QNH
hPa
Press
MSL
hPa
Rain since
9am
mm
Dir  Spd
km/h
Gust
km/h
Spd
kts
Gust
kts
24/11:30pm 29.0 31.0 15.9 45 8.2 CALM 0 0 0 0 - - 0.0
24/11:00pm 29.7 31.3 15.0 40 9.1 CALM 0 0 0 0 - - 0.0

Other Formats:

Comma delimited format used in spreadsheet applications
http://www.bom.gov.au/fwo/IDQ60801/IDQ60801.94349.axf

JavaScript Object Notation format (JSON) in row-major order
http://www.bom.gov.au/fwo/IDQ60801/IDQ60801.94349.json